createdAt,value
2023-03-21T00:01:25.316Z,11.80
2023-03-21T00:04:01.809Z,11.70
2023-03-21T00:06:38.740Z,11.58
2023-03-21T00:09:17.668Z,11.50
2023-03-21T00:11:54.905Z,11.50
2023-03-21T00:14:33.094Z,11.50
2023-03-21T00:17:11.315Z,11.50
2023-03-21T00:19:50.513Z,11.50
2023-03-21T00:22:28.445Z,11.50
2023-03-21T00:25:06.138Z,11.50
2023-03-21T00:27:57.198Z,11.50
2023-03-21T00:30:42.107Z,11.50
2023-03-21T00:33:22.889Z,11.50
2023-03-21T00:36:05.575Z,11.50
2023-03-21T00:38:45.172Z,11.50
2023-03-21T00:41:39.163Z,11.50
2023-03-21T00:44:17.944Z,11.40
2023-03-21T00:47:06.180Z,11.40
2023-03-21T00:49:44.861Z,11.40
2023-03-21T00:52:34.167Z,11.40
2023-03-21T00:55:22.651Z,11.38
2023-03-21T00:58:02.654Z,11.40
2023-03-21T01:00:39.311Z,11.36
2023-03-21T01:03:24.851Z,11.30
2023-03-21T01:06:06.456Z,11.30
2023-03-21T01:08:52.607Z,11.22
2023-03-21T01:11:33.233Z,11.20
2023-03-21T01:14:21.853Z,11.20
2023-03-21T01:16:59.652Z,11.10
2023-03-21T01:19:50.597Z,11.10
2023-03-21T01:22:28.269Z,11.14
2023-03-21T01:25:21.053Z,11.10
2023-03-21T01:28:01.997Z,11.10
2023-03-21T01:30:41.964Z,11.10
2023-03-21T01:33:18.745Z,11.00
2023-03-21T01:36:09.995Z,11.00
2023-03-21T01:38:48.339Z,10.90
2023-03-21T01:41:42.572Z,10.90
2023-03-21T01:44:28.848Z,10.80
2023-03-21T01:47:13.022Z,10.70
2023-03-21T01:49:58.424Z,10.70
2023-03-21T01:52:42.822Z,10.70
2023-03-21T01:55:25.567Z,10.70
2023-03-21T01:58:35.152Z,10.60
2023-03-21T02:01:35.082Z,10.60
2023-03-21T02:04:12.327Z,10.60
2023-03-21T02:07:08.897Z,10.50
2023-03-21T02:09:55.007Z,10.50
2023-03-21T02:12:33.529Z,10.50
2023-03-21T02:15:20.313Z,10.50
2023-03-21T02:18:25.032Z,10.50
2023-03-21T02:21:35.141Z,10.50
2023-03-21T02:24:44.268Z,10.50
2023-03-21T02:27:27.411Z,10.50
2023-03-21T02:30:52.484Z,10.50
2023-03-21T02:37:03.714Z,10.40
2023-03-21T02:40:14.534Z,10.40
2023-03-21T02:43:14.176Z,10.40
2023-03-21T02:46:09.703Z,10.30
2023-03-21T02:48:55.674Z,10.40
2023-03-21T02:51:36.485Z,10.40
2023-03-21T02:54:38.432Z,10.40
2023-03-21T02:57:16.819Z,10.40
2023-03-21T03:00:02.331Z,10.30
2023-03-21T03:02:44.268Z,10.30
2023-03-21T03:05:26.413Z,10.30
2023-03-21T03:08:47.560Z,10.30
2023-03-21T03:11:35.292Z,10.20
2023-03-21T03:15:00.267Z,10.20
2023-03-21T03:17:54.417Z,10.20
2023-03-21T03:20:54.183Z,10.20
2023-03-21T03:23:42.069Z,10.10
2023-03-21T03:26:26.121Z,10.14
2023-03-21T03:29:13.244Z,10.12
2023-03-21T03:32:02.531Z,10.10
2023-03-21T03:34:50.609Z,10.10
2023-03-21T03:37:32.257Z,10.10
2023-03-21T03:40:19.046Z,10.10
2023-03-21T03:43:13.017Z,10.10
2023-03-21T03:45:59.540Z,10.10
2023-03-21T03:48:46.849Z,10.00
2023-03-21T03:51:31.444Z,9.98
2023-03-21T03:54:32.545Z,9.90
2023-03-21T03:57:12.134Z,9.90
2023-03-21T03:59:50.909Z,9.80
2023-03-21T04:02:32.469Z,9.70
2023-03-21T04:05:12.593Z,9.70
2023-03-21T04:07:48.894Z,9.60
2023-03-21T04:10:26.225Z,9.60
2023-03-21T04:13:08.960Z,9.60
2023-03-21T04:16:05.131Z,9.60
2023-03-21T04:18:44.957Z,9.60
2023-03-21T04:21:21.765Z,9.60
2023-03-21T04:23:59.301Z,9.60
2023-03-21T04:26:36.291Z,9.60
2023-03-21T04:29:39.627Z,9.60
2023-03-21T04:32:34.683Z,9.60
2023-03-21T04:35:19.794Z,9.60
2023-03-21T04:37:56.690Z,9.60
2023-03-21T04:40:33.519Z,9.60
2023-03-21T04:43:10.175Z,9.60
2023-03-21T04:45:48.205Z,9.50
2023-03-21T04:48:26.471Z,9.50
2023-03-21T04:51:01.913Z,9.50
2023-03-21T04:53:38.592Z,9.50
2023-03-21T04:56:19.716Z,9.40
2023-03-21T04:58:55.810Z,9.40
2023-03-21T05:01:33.408Z,9.40
2023-03-21T05:04:10.525Z,9.42
2023-03-21T05:06:48.117Z,9.50
2023-03-21T05:09:26.141Z,9.50
2023-03-21T05:12:02.757Z,9.50
2023-03-21T05:14:40.515Z,9.50
2023-03-21T05:17:25.405Z,9.50
2023-03-21T05:20:05.393Z,9.50
2023-03-21T05:22:47.089Z,9.50
2023-03-21T05:25:35.858Z,9.50
2023-03-21T05:28:44.889Z,9.50
2023-03-21T05:31:21.801Z,9.50
2023-03-21T05:34:03.750Z,9.50
2023-03-21T05:36:40.699Z,9.50
2023-03-21T05:39:17.848Z,9.50
2023-03-21T05:42:04.178Z,9.50
2023-03-21T05:44:40.826Z,9.50
2023-03-21T05:47:20.638Z,9.50
2023-03-21T05:49:59.405Z,9.50
2023-03-21T05:52:36.986Z,9.60
2023-03-21T05:55:20.733Z,9.60
2023-03-21T05:57:57.320Z,9.60
2023-03-21T06:00:38.116Z,9.68
2023-03-21T06:03:34.773Z,9.70
2023-03-21T06:06:25.409Z,9.72
2023-03-21T06:09:06.877Z,9.80
2023-03-21T06:11:53.665Z,9.90
2023-03-21T06:14:40.979Z,10.00
2023-03-21T06:17:43.960Z,10.10
2023-03-21T06:20:22.840Z,10.10
2023-03-21T06:23:02.771Z,10.10
2023-03-21T06:25:41.183Z,10.18
2023-03-21T06:28:18.317Z,10.20
2023-03-21T06:30:55.089Z,10.20
2023-03-21T06:33:34.413Z,10.26
2023-03-21T06:36:13.246Z,10.30
2023-03-21T06:38:49.417Z,10.30
2023-03-21T06:41:26.198Z,10.40
2023-03-21T06:44:08.325Z,10.48
2023-03-21T06:46:51.179Z,10.50
2023-03-21T06:49:28.241Z,10.70
2023-03-21T06:52:06.573Z,10.80
2023-03-21T06:54:43.345Z,10.94
2023-03-21T06:57:22.285Z,11.10
2023-03-21T06:59:59.534Z,11.20
2023-03-21T07:02:38.508Z,11.30
2023-03-21T07:05:20.666Z,11.50
2023-03-21T07:07:56.790Z,11.60
2023-03-21T07:10:36.305Z,11.70
2023-03-21T07:13:14.469Z,11.82
2023-03-21T07:15:57.973Z,11.98
2023-03-21T07:18:34.256Z,12.10
2023-03-21T07:21:12.716Z,12.20
2023-03-21T07:23:50.534Z,12.24
2023-03-21T07:26:26.872Z,12.38
2023-03-21T07:29:03.241Z,12.50
2023-03-21T07:31:40.062Z,12.56
2023-03-21T07:34:17.935Z,12.68
2023-03-21T07:36:54.484Z,12.78
2023-03-21T07:39:33.250Z,12.90
2023-03-21T07:44:48.168Z,13.10
2023-03-21T07:47:24.386Z,13.20
2023-03-21T07:50:01.097Z,13.30
2023-03-21T07:52:38.239Z,13.40
2023-03-21T07:55:17.543Z,13.50
2023-03-21T07:57:55.816Z,13.60
2023-03-21T08:00:34.065Z,13.70
2023-03-21T08:03:10.881Z,13.70
2023-03-21T08:05:48.256Z,13.80
2023-03-21T08:08:24.958Z,13.80
2023-03-21T08:11:01.063Z,13.80
2023-03-21T08:13:37.479Z,13.82
2023-03-21T08:16:16.641Z,13.90
2023-03-21T08:18:53.098Z,14.00
2023-03-21T08:21:30.276Z,14.10
2023-03-21T08:24:08.633Z,14.10
2023-03-21T08:26:46.208Z,14.20
2023-03-21T08:29:23.118Z,14.18
2023-03-21T08:31:59.330Z,14.20
2023-03-21T08:34:35.681Z,14.20
2023-03-21T08:37:12.317Z,14.20
2023-03-21T08:39:49.632Z,14.20
2023-03-21T08:42:26.682Z,14.26
2023-03-21T08:45:03.629Z,14.30
2023-03-21T08:47:41.331Z,14.30
2023-03-21T08:50:27.052Z,14.40
2023-03-21T08:53:03.437Z,14.50
2023-03-21T08:55:40.390Z,14.50
2023-03-21T08:58:17.380Z,14.60
2023-03-21T09:00:54.217Z,14.60
2023-03-21T09:03:30.383Z,14.70
2023-03-21T09:06:07.270Z,14.78
2023-03-21T09:08:44.430Z,14.80
2023-03-21T09:11:21.785Z,14.90
2023-03-21T09:13:59.134Z,14.90
2023-03-21T09:16:35.877Z,14.90
2023-03-21T09:19:13.393Z,15.00
2023-03-21T09:21:49.981Z,15.08
2023-03-21T09:24:27.984Z,15.10
2023-03-21T09:27:04.664Z,15.18
2023-03-21T09:29:44.329Z,15.20
2023-03-21T09:32:21.058Z,15.30
2023-03-21T09:34:57.709Z,15.40
2023-03-21T09:37:33.878Z,15.40
2023-03-21T09:40:19.901Z,15.50
2023-03-21T09:43:10.794Z,15.52
2023-03-21T09:45:57.325Z,15.60
2023-03-21T09:48:56.771Z,15.70
2023-03-21T09:51:39.986Z,15.80
2023-03-21T09:54:26.105Z,15.86
2023-03-21T09:57:16.022Z,15.90
2023-03-21T09:59:54.134Z,16.00
2023-03-21T10:02:47.440Z,16.10
2023-03-21T10:05:30.379Z,16.12
2023-03-21T10:08:14.917Z,16.20
2023-03-21T10:10:58.024Z,16.24
2023-03-21T10:13:42.001Z,16.30
2023-03-21T10:16:23.930Z,16.40
2023-03-21T10:19:03.425Z,16.50
2023-03-21T10:22:02.367Z,16.60
2023-03-21T10:24:43.070Z,16.70
2023-03-21T10:27:19.648Z,16.78
2023-03-21T10:29:58.620Z,16.82
2023-03-21T10:32:36.287Z,16.90
2023-03-21T10:35:16.707Z,17.00
2023-03-21T10:37:54.712Z,17.06
2023-03-21T10:40:33.553Z,17.10
2023-03-21T10:46:19.295Z,17.30
2023-03-21T10:48:59.019Z,17.40
2023-03-21T10:51:38.848Z,17.50
2023-03-21T10:54:22.224Z,17.60
2023-03-21T10:57:07.877Z,17.70
2023-03-21T10:59:54.514Z,17.80
2023-03-21T11:02:36.662Z,17.90
2023-03-21T11:05:24.568Z,17.90
2023-03-21T11:08:17.586Z,18.00
2023-03-21T11:11:06.363Z,18.10
2023-03-21T11:13:46.765Z,18.10
2023-03-21T11:16:29.312Z,18.20
2023-03-21T11:19:19.214Z,18.24
2023-03-21T11:21:56.116Z,18.30
2023-03-21T11:24:35.456Z,18.36
2023-03-21T11:27:15.169Z,18.40
2023-03-21T11:29:56.595Z,18.40
2023-03-21T11:32:38.054Z,18.50
2023-03-21T11:35:25.434Z,18.50
2023-03-21T11:38:03.577Z,18.60
2023-03-21T11:40:54.243Z,18.68
2023-03-21T11:43:39.869Z,18.70
2023-03-21T11:46:19.060Z,18.70
2023-03-21T11:48:56.700Z,18.80
2023-03-21T11:51:42.133Z,18.86
2023-03-21T11:54:28.442Z,18.90
2023-03-21T11:57:17.223Z,19.00
2023-03-21T12:00:06.437Z,19.04
2023-03-21T12:03:18.922Z,19.18
2023-03-21T12:06:03.913Z,19.30
2023-03-21T12:08:58.870Z,19.30
2023-03-21T12:11:53.429Z,19.40
2023-03-21T12:14:44.628Z,19.50
2023-03-21T12:17:38.491Z,19.50
2023-03-21T12:20:40.338Z,19.50
2023-03-21T12:23:45.903Z,19.60
2023-03-21T12:26:31.331Z,19.70
2023-03-21T12:29:35.808Z,19.70
2023-03-21T12:32:41.936Z,19.78
2023-03-21T12:35:41.907Z,19.80
2023-03-21T12:38:27.577Z,19.90
2023-03-21T12:41:37.520Z,19.90
2023-03-21T12:44:22.494Z,20.00
2023-03-21T12:47:04.814Z,20.00
2023-03-21T12:49:46.539Z,20.10
2023-03-21T12:52:29.917Z,20.16
2023-03-21T12:55:17.320Z,20.20
2023-03-21T12:58:03.069Z,20.20
2023-03-21T13:00:47.501Z,20.20
2023-03-21T13:03:39.176Z,20.20
2023-03-21T13:06:20.397Z,20.20
2023-03-21T13:09:03.931Z,20.30
2023-03-21T13:11:41.841Z,20.30
2023-03-21T13:14:27.645Z,20.40
2023-03-21T13:17:13.779Z,20.40
2023-03-21T13:20:00.770Z,20.40
2023-03-21T13:22:38.361Z,20.46
2023-03-21T13:25:25.883Z,20.50
2023-03-21T13:28:07.579Z,20.50
2023-03-21T13:30:45.033Z,20.50
2023-03-21T13:33:27.932Z,20.50
2023-03-21T13:36:11.745Z,20.50
2023-03-21T13:38:56.538Z,20.52
2023-03-21T13:41:37.813Z,20.54
2023-03-21T13:44:36.204Z,20.60
2023-03-21T13:47:38.174Z,20.60
2023-03-21T13:51:02.712Z,20.60
2023-03-21T13:54:03.854Z,20.60
2023-03-21T13:57:01.288Z,20.60
2023-03-21T13:59:49.239Z,20.60
2023-03-21T14:02:39.450Z,20.60
2023-03-21T14:05:29.936Z,20.60
2023-03-21T14:08:19.244Z,20.64
2023-03-21T14:11:07.647Z,20.70
2023-03-21T14:13:51.514Z,20.70
2023-03-21T14:16:30.972Z,20.70
2023-03-21T14:19:14.304Z,20.68
2023-03-21T14:21:57.920Z,20.70
2023-03-21T14:24:34.360Z,20.70
2023-03-21T14:27:15.274Z,20.70
2023-03-21T14:29:55.564Z,20.70
2023-03-21T14:32:35.060Z,20.70
2023-03-21T14:35:17.083Z,20.70
2023-03-21T14:37:54.111Z,20.70
2023-03-21T14:40:33.668Z,20.70
2023-03-21T14:43:14.020Z,20.70
2023-03-21T14:45:53.265Z,20.70
2023-03-21T14:48:37.018Z,20.70
2023-03-21T14:51:16.932Z,20.60
2023-03-21T14:53:53.690Z,20.60
2023-03-21T14:56:31.845Z,20.60
2023-03-21T14:59:09.333Z,20.52
2023-03-21T15:01:48.876Z,20.50
2023-03-21T15:04:25.186Z,20.50
2023-03-21T15:07:05.449Z,20.46
2023-03-21T15:09:42.153Z,20.40
2023-03-21T15:12:23.413Z,20.40
2023-03-21T15:15:02.355Z,20.30
2023-03-21T15:17:39.317Z,20.30
2023-03-21T15:20:22.283Z,20.30
2023-03-21T15:23:04.879Z,20.26
2023-03-21T15:25:43.142Z,20.20
2023-03-21T15:28:19.809Z,20.20
2023-03-21T15:30:59.502Z,20.14
2023-03-21T15:33:36.380Z,20.10
2023-03-21T15:36:22.153Z,20.10
2023-03-21T15:38:59.084Z,20.10
2023-03-21T15:41:36.161Z,20.00
2023-03-21T15:44:24.620Z,20.00
2023-03-21T15:47:00.807Z,19.90
2023-03-21T15:49:42.966Z,19.90
2023-03-21T15:52:21.843Z,19.80
2023-03-21T15:54:59.430Z,19.76
2023-03-21T15:57:38.158Z,19.70
2023-03-21T16:00:29.893Z,19.70
2023-03-21T16:03:18.457Z,19.60
2023-03-21T16:06:25.723Z,19.60
2023-03-21T16:09:23.989Z,19.58
2023-03-21T16:12:02.217Z,19.50
2023-03-21T16:14:40.414Z,19.50
2023-03-21T16:17:34.318Z,19.50
2023-03-21T16:20:22.113Z,19.50
2023-03-21T16:22:59.283Z,19.40
2023-03-21T16:25:36.936Z,19.40
2023-03-21T16:28:19.250Z,19.38
2023-03-21T16:30:55.907Z,19.30
2023-03-21T16:33:33.280Z,19.30
2023-03-21T16:36:14.148Z,19.30
2023-03-21T16:38:52.797Z,19.20
2023-03-21T16:41:32.328Z,19.20
2023-03-21T16:44:09.381Z,19.20
2023-03-21T16:46:45.700Z,19.20
2023-03-21T16:49:28.515Z,19.10
2023-03-21T16:52:06.940Z,19.10
2023-03-21T16:54:43.678Z,19.10
2023-03-21T16:57:31.447Z,19.06
2023-03-21T17:00:14.356Z,19.00
2023-03-21T17:02:51.162Z,19.00
2023-03-21T17:05:28.649Z,18.90
2023-03-21T17:08:05.533Z,18.90
2023-03-21T17:10:41.783Z,18.90
2023-03-21T17:13:17.942Z,18.80
2023-03-21T17:15:53.546Z,18.80
2023-03-21T17:18:30.198Z,18.76
2023-03-21T17:21:13.412Z,18.70
2023-03-21T17:23:50.533Z,18.70
2023-03-21T17:26:28.582Z,18.70
2023-03-21T17:29:08.146Z,18.60
2023-03-21T17:31:47.476Z,18.60
2023-03-21T17:34:24.085Z,18.50
2023-03-21T17:37:01.242Z,18.50
2023-03-21T17:39:38.502Z,18.46
2023-03-21T17:42:18.535Z,18.40
2023-03-21T17:44:55.305Z,18.40
2023-03-21T17:47:33.161Z,18.32
2023-03-21T17:50:14.607Z,18.30
2023-03-21T17:52:51.036Z,18.20
2023-03-21T17:55:27.335Z,18.20
2023-03-21T17:58:02.902Z,18.10
2023-03-21T18:00:39.718Z,18.10
2023-03-21T18:03:17.813Z,18.00
2023-03-21T18:05:55.583Z,18.00
2023-03-21T18:08:32.229Z,17.90
2023-03-21T18:11:09.160Z,17.80
2023-03-21T18:13:46.156Z,17.70
2023-03-21T18:16:25.949Z,17.50
2023-03-21T18:19:03.550Z,17.38
2023-03-21T18:21:40.822Z,17.20
2023-03-21T18:24:18.630Z,17.10
2023-03-21T18:26:55.951Z,17.00
2023-03-21T18:30:19.680Z,16.90
2023-03-21T18:32:30.633Z,16.90
2023-03-21T18:35:07.961Z,16.80
2023-03-21T18:37:44.721Z,16.80
2023-03-21T18:40:24.261Z,16.80
2023-03-21T18:45:57.577Z,16.70
2023-03-21T18:48:34.339Z,16.60
2023-03-21T18:51:12.624Z,16.60
2023-03-21T18:53:49.859Z,16.50
2023-03-21T18:59:23.352Z,16.40
2023-03-21T19:02:01.081Z,16.40
2023-03-21T19:04:38.905Z,16.36
2023-03-21T19:07:16.101Z,16.30
2023-03-21T19:10:15.895Z,16.30
2023-03-21T19:12:50.310Z,16.30
2023-03-21T19:15:27.225Z,16.30
2023-03-21T19:21:01.437Z,16.20
2023-03-21T19:24:16.533Z,16.20
2023-03-21T19:26:37.541Z,16.20
2023-03-21T19:29:14.970Z,16.10
2023-03-21T19:31:51.966Z,16.10
2023-03-21T19:34:29.632Z,16.06
2023-03-21T19:37:06.691Z,16.00
2023-03-21T19:39:44.196Z,16.00
2023-03-21T19:42:21.075Z,16.00
2023-03-21T19:44:57.550Z,15.90
2023-03-21T19:47:33.695Z,15.90
2023-03-21T19:53:11.112Z,15.80
2023-03-21T19:55:48.153Z,15.76
2023-03-21T19:58:24.548Z,15.70
2023-03-21T20:01:00.239Z,15.70
2023-03-21T20:03:38.521Z,15.70
2023-03-21T20:06:18.654Z,15.64
2023-03-21T20:11:54.353Z,15.60
2023-03-21T20:14:32.013Z,15.50
2023-03-21T20:17:09.063Z,15.50
2023-03-21T20:19:45.613Z,15.50
2023-03-21T20:22:35.906Z,15.50
2023-03-21T20:25:19.760Z,15.50
2023-03-21T20:28:12.895Z,15.50
2023-03-21T20:30:57.198Z,15.50
2023-03-21T20:33:34.413Z,15.50
2023-03-21T20:39:13.583Z,15.40
2023-03-21T20:41:49.775Z,15.40
2023-03-21T20:44:57.121Z,15.40
2023-03-21T20:47:23.112Z,15.40
2023-03-21T20:50:00.538Z,15.30
2023-03-21T20:53:07.817Z,15.30
2023-03-21T20:55:37.215Z,15.30
2023-03-21T20:58:36.786Z,15.22
2023-03-21T21:01:15.681Z,15.20
2023-03-21T21:03:51.800Z,15.20
2023-03-21T21:06:28.281Z,15.20
2023-03-21T21:09:05.842Z,15.20
2023-03-21T21:14:39.222Z,15.20
2023-03-21T21:17:35.218Z,15.20
2023-03-21T21:20:18.786Z,15.20
2023-03-21T21:23:00.676Z,15.24
2023-03-21T21:25:40.150Z,15.30
2023-03-21T21:28:16.927Z,15.30
2023-03-21T21:30:55.896Z,15.30
2023-03-21T21:33:34.506Z,15.30
2023-03-21T21:36:13.016Z,15.30
2023-03-21T21:38:50.496Z,15.20
2023-03-21T21:41:28.532Z,15.20
2023-03-21T21:44:05.377Z,15.20
2023-03-21T21:46:41.640Z,15.20
2023-03-21T21:49:17.795Z,15.20
2023-03-21T21:51:54.052Z,15.20
2023-03-21T21:54:34.575Z,15.20
2023-03-21T21:57:11.277Z,15.20
2023-03-21T21:59:46.910Z,15.16
2023-03-21T22:02:25.645Z,15.10
2023-03-21T22:05:03.519Z,15.10
2023-03-21T22:07:39.844Z,15.10
2023-03-21T22:10:19.144Z,15.08
2023-03-21T22:12:55.379Z,15.06
2023-03-21T22:15:33.139Z,15.00
2023-03-21T22:18:09.616Z,15.00
2023-03-21T22:20:46.292Z,14.90
2023-03-21T22:23:26.347Z,14.88
2023-03-21T22:26:04.705Z,14.80
2023-03-21T22:28:42.384Z,14.80
2023-03-21T22:31:22.916Z,14.80
2023-03-21T22:34:01.156Z,14.70
2023-03-21T22:36:37.466Z,14.70
2023-03-21T22:39:15.183Z,14.70
2023-03-21T22:41:51.655Z,14.70
2023-03-21T22:44:27.685Z,14.70
2023-03-21T22:47:04.195Z,14.70
2023-03-21T22:49:42.632Z,14.70
2023-03-21T22:52:19.961Z,14.60
2023-03-21T22:54:57.012Z,14.60
2023-03-21T22:57:33.577Z,14.54
2023-03-21T23:00:16.578Z,14.50
2023-03-21T23:02:53.554Z,14.42
2023-03-21T23:05:29.998Z,14.40
2023-03-21T23:08:06.690Z,14.40
2023-03-21T23:10:46.233Z,14.40
2023-03-21T23:13:24.392Z,14.40
2023-03-21T23:16:04.372Z,14.34
2023-03-21T23:18:40.901Z,14.30
2023-03-21T23:21:18.377Z,14.30
2023-03-21T23:23:54.542Z,14.30
2023-03-21T23:26:30.644Z,14.30
2023-03-21T23:29:08.224Z,14.30
2023-03-21T23:31:44.905Z,14.28
2023-03-21T23:34:21.613Z,14.30
2023-03-21T23:36:58.525Z,14.30
2023-03-21T23:39:35.806Z,14.30
2023-03-21T23:42:12.047Z,14.30
2023-03-21T23:44:48.645Z,14.30
2023-03-21T23:47:25.425Z,14.22
2023-03-21T23:50:02.208Z,14.20
2023-03-21T23:52:39.105Z,14.20
2023-03-21T23:55:16.222Z,14.20
2023-03-21T23:57:59.021Z,14.20
